sensor_id;sensor_type;location;lat;lon;timestamp;pressure;altitude;pressure_sealevel;temperature;humidity
38880;BME280;25887;30.194;-97.880;2024-01-15T00:00:07;98942.00;;;-0.06;42.72
38880;BME280;25887;30.194;-97.880;2024-01-15T00:02:35;98948.47;;;-0.11;42.79
38880;BME280;25887;30.194;-97.880;2024-01-15T00:05:02;98926.53;;;-0.12;43.12
38880;BME280;25887;30.194;-97.880;2024-01-15T00:07:28;98921.16;;;-0.18;42.76
38880;BME280;25887;30.194;-97.880;2024-01-15T00:09:54;98927.72;;;-0.21;42.31
38880;BME280;25887;30.194;-97.880;2024-01-15T00:12:21;98939.22;;;-0.26;42.57
38880;BME280;25887;30.194;-97.880;2024-01-15T00:14:47;98926.41;;;-0.31;42.90
38880;BME280;25887;30.194;-97.880;2024-01-15T00:17:13;98938.22;;;-0.30;42.98
38880;BME280;25887;30.194;-97.880;2024-01-15T00:19:39;98944.22;;;-0.28;42.60
38880;BME280;25887;30.194;-97.880;2024-01-15T00:22:05;98937.44;;;-0.29;42.82
38880;BME280;25887;30.194;-97.880;2024-01-15T00:24:32;98943.28;;;-0.30;43.08
38880;BME280;25887;30.194;-97.880;2024-01-15T00:26:58;98945.78;;;-0.30;43.17
38880;BME280;25887;30.194;-97.880;2024-01-15T00:29:26;98936.38;;;-0.33;43.11
38880;BME280;25887;30.194;-97.880;2024-01-15T00:31:52;98940.50;;;-0.35;43.20
38880;BME280;25887;30.194;-97.880;2024-01-15T00:34:18;98941.03;;;-0.40;43.00
38880;BME280;25887;30.194;-97.880;2024-01-15T00:36:45;98954.44;;;-0.41;43.00
38880;BME280;25887;30.194;-97.880;2024-01-15T00:39:14;98948.59;;;-0.40;42.99
38880;BME280;25887;30.194;-97.880;2024-01-15T00:41:40;98951.25;;;-0.39;43.48
38880;BME280;25887;30.194;-97.880;2024-01-15T00:44:06;98954.63;;;-0.38;42.79
38880;BME280;25887;30.194;-97.880;2024-01-15T00:46:33;98963.69;;;-0.42;42.72
38880;BME280;25887;30.194;-97.880;2024-01-15T00:48:59;98965.97;;;-0.46;42.79
38880;BME280;25887;30.194;-97.880;2024-01-15T00:51:25;98954.59;;;-0.54;42.75
38880;BME280;25887;30.194;-97.880;2024-01-15T00:54:09;98974.69;;;-0.56;42.98
38880;BME280;25887;30.194;-97.880;2024-01-15T00:56:36;98966.41;;;-0.70;43.25
38880;BME280;25887;30.194;-97.880;2024-01-15T00:59:03;98978.78;;;-0.74;43.24
38880;BME280;25887;30.194;-97.880;2024-01-15T01:01:29;98975.31;;;-0.76;43.37
38880;BME280;25887;30.194;-97.880;2024-01-15T01:03:55;98988.59;;;-0.79;43.17
38880;BME280;25887;30.194;-97.880;2024-01-15T01:06:22;98992.78;;;-0.79;43.30
38880;BME280;25887;30.194;-97.880;2024-01-15T01:08:48;98989.31;;;-0.81;43.43
38880;BME280;25887;30.194;-97.880;2024-01-15T01:11:15;98973.06;;;-0.87;43.26
38880;BME280;25887;30.194;-97.880;2024-01-15T01:13:42;98985.84;;;-0.83;43.58
38880;BME280;25887;30.194;-97.880;2024-01-15T01:16:08;98979.22;;;-0.81;43.38
38880;BME280;25887;30.194;-97.880;2024-01-15T01:18:35;98982.47;;;-0.84;43.37
38880;BME280;25887;30.194;-97.880;2024-01-15T01:21:02;98985.44;;;-0.91;43.44
38880;BME280;25887;30.194;-97.880;2024-01-15T01:23:28;98999.63;;;-0.93;43.10
38880;BME280;25887;30.194;-97.880;2024-01-15T01:25:55;98988.41;;;-0.98;43.51
38880;BME280;25887;30.194;-97.880;2024-01-15T01:28:21;98983.81;;;-1.05;43.47
38880;BME280;25887;30.194;-97.880;2024-01-15T01:30:47;98992.41;;;-1.02;43.26
38880;BME280;25887;30.194;-97.880;2024-01-15T01:33:14;98983.97;;;-1.02;43.68
38880;BME280;25887;30.194;-97.880;2024-01-15T01:35:46;98992.25;;;-1.05;43.45
38880;BME280;25887;30.194;-97.880;2024-01-15T01:38:13;99005.56;;;-1.07;43.52
38880;BME280;25887;30.194;-97.880;2024-01-15T01:40:39;98988.34;;;-1.15;43.44
38880;BME280;25887;30.194;-97.880;2024-01-15T01:43:06;98989.72;;;-1.20;43.60
38880;BME280;25887;30.194;-97.880;2024-01-15T01:45:32;99005.56;;;-1.22;43.84
38880;BME280;25887;30.194;-97.880;2024-01-15T01:48:00;99005.22;;;-1.28;43.66
38880;BME280;25887;30.194;-97.880;2024-01-15T01:50:26;99013.28;;;-1.34;43.89
38880;BME280;25887;30.194;-97.880;2024-01-15T01:52:53;99007.03;;;-1.41;43.63
38880;BME280;25887;30.194;-97.880;2024-01-15T01:55:21;99011.81;;;-1.45;44.07
38880;BME280;25887;30.194;-97.880;2024-01-15T01:57:48;98997.22;;;-1.51;43.89
38880;BME280;25887;30.194;-97.880;2024-01-15T02:00:14;99006.25;;;-1.54;44.29
38880;BME280;25887;30.194;-97.880;2024-01-15T02:02:41;99015.78;;;-1.63;44.16
38880;BME280;25887;30.194;-97.880;2024-01-15T02:05:07;99023.19;;;-1.66;44.20
38880;BME280;25887;30.194;-97.880;2024-01-15T02:07:34;99023.97;;;-1.67;44.55
38880;BME280;25887;30.194;-97.880;2024-01-15T02:10:02;99031.00;;;-1.77;44.73
38880;BME280;25887;30.194;-97.880;2024-01-15T02:12:28;99033.16;;;-1.83;44.67
38880;BME280;25887;30.194;-97.880;2024-01-15T02:14:54;99023.94;;;-1.82;44.66
38880;BME280;25887;30.194;-97.880;2024-01-15T02:17:20;99029.84;;;-1.82;44.65
38880;BME280;25887;30.194;-97.880;2024-01-15T02:19:47;99013.00;;;-1.83;44.66
38880;BME280;25887;30.194;-97.880;2024-01-15T02:22:13;99024.44;;;-1.88;44.39
38880;BME280;25887;30.194;-97.880;2024-01-15T02:24:39;99032.69;;;-1.90;44.89
38880;BME280;25887;30.194;-97.880;2024-01-15T02:27:05;99035.69;;;-1.96;44.78
38880;BME280;25887;30.194;-97.880;2024-01-15T02:29:31;99043.88;;;-2.00;44.72
38880;BME280;25887;30.194;-97.880;2024-01-15T02:31:57;99049.69;;;-2.01;44.78
38880;BME280;25887;30.194;-97.880;2024-01-15T02:34:24;99049.78;;;-2.00;44.80
38880;BME280;25887;30.194;-97.880;2024-01-15T02:36:50;99051.59;;;-1.97;44.57
38880;BME280;25887;30.194;-97.880;2024-01-15T02:39:16;99049.16;;;-1.96;44.76
38880;BME280;25887;30.194;-97.880;2024-01-15T02:41:42;99048.69;;;-2.03;44.65
38880;BME280;25887;30.194;-97.880;2024-01-15T02:44:09;99043.50;;;-2.06;44.71
38880;BME280;25887;30.194;-97.880;2024-01-15T02:46:35;99040.69;;;-2.11;44.94
38880;BME280;25887;30.194;-97.880;2024-01-15T02:49:01;99030.16;;;-2.18;44.87
38880;BME280;25887;30.194;-97.880;2024-01-15T02:51:27;99042.00;;;-2.17;45.12
38880;BME280;25887;30.194;-97.880;2024-01-15T02:53:53;99045.50;;;-2.29;45.01
38880;BME280;25887;30.194;-97.880;2024-01-15T02:56:20;99050.25;;;-2.33;45.28
38880;BME280;25887;30.194;-97.880;2024-01-15T02:58:46;99048.41;;;-2.36;45.20
38880;BME280;25887;30.194;-97.880;2024-01-15T03:01:12;99056.56;;;-2.40;45.27
38880;BME280;25887;30.194;-97.880;2024-01-15T03:03:40;99052.78;;;-2.46;45.71
38880;BME280;25887;30.194;-97.880;2024-01-15T03:06:06;99056.75;;;-2.50;45.65
38880;BME280;25887;30.194;-97.880;2024-01-15T03:08:32;99043.81;;;-2.56;45.82
38880;BME280;25887;30.194;-97.880;2024-01-15T03:11:00;99054.94;;;-2.66;45.71
38880;BME280;25887;30.194;-97.880;2024-01-15T03:13:27;99056.41;;;-2.69;46.08
38880;BME280;25887;30.194;-97.880;2024-01-15T03:15:53;99060.34;;;-2.73;45.74
38880;BME280;25887;30.194;-97.880;2024-01-15T03:18:19;99056.69;;;-2.78;45.86
38880;BME280;25887;30.194;-97.880;2024-01-15T03:20:45;99055.63;;;-2.82;46.06
38880;BME280;25887;30.194;-97.880;2024-01-15T03:23:12;99061.25;;;-2.86;46.57
38880;BME280;25887;30.194;-97.880;2024-01-15T03:25:38;99065.97;;;-2.90;46.56
38880;BME280;25887;30.194;-97.880;2024-01-15T03:28:04;99075.94;;;-2.92;45.97
38880;BME280;25887;30.194;-97.880;2024-01-15T03:30:31;99067.34;;;-2.95;46.17
38880;BME280;25887;30.194;-97.880;2024-01-15T03:32:57;99071.69;;;-2.93;46.23
38880;BME280;25887;30.194;-97.880;2024-01-15T03:35:23;99066.34;;;-2.97;46.26
38880;BME280;25887;30.194;-97.880;2024-01-15T03:37:49;99074.56;;;-3.00;46.42
38880;BME280;25887;30.194;-97.880;2024-01-15T03:40:16;99063.84;;;-2.97;46.04
38880;BME280;25887;30.194;-97.880;2024-01-15T03:42:42;99069.72;;;-2.97;46.22
38880;BME280;25887;30.194;-97.880;2024-01-15T03:45:08;99063.75;;;-2.99;46.45
38880;BME280;25887;30.194;-97.880;2024-01-15T03:47:35;99073.72;;;-3.00;46.39
38880;BME280;25887;30.194;-97.880;2024-01-15T03:50:07;99077.88;;;-3.01;46.54
38880;BME280;25887;30.194;-97.880;2024-01-15T03:52:33;99074.19;;;-3.06;46.50
38880;BME280;25887;30.194;-97.880;2024-01-15T03:54:59;99077.66;;;-3.04;46.52
38880;BME280;25887;30.194;-97.880;2024-01-15T03:57:25;99077.38;;;-3.09;46.39
38880;BME280;25887;30.194;-97.880;2024-01-15T03:59:52;99079.88;;;-3.09;46.68
38880;BME280;25887;30.194;-97.880;2024-01-15T04:02:18;99077.06;;;-3.13;46.56
38880;BME280;25887;30.194;-97.880;2024-01-15T04:04:44;99079.16;;;-3.19;46.66
38880;BME280;25887;30.194;-97.880;2024-01-15T04:07:11;99086.44;;;-3.24;46.47
38880;BME280;25887;30.194;-97.880;2024-01-15T04:09:37;99074.75;;;-3.23;46.38
38880;BME280;25887;30.194;-97.880;2024-01-15T04:12:04;99090.59;;;-3.24;46.44
38880;BME280;25887;30.194;-97.880;2024-01-15T04:14:34;99077.25;;;-3.23;46.84
38880;BME280;25887;30.194;-97.880;2024-01-15T04:17:00;99076.75;;;-3.31;46.84
38880;BME280;25887;30.194;-97.880;2024-01-15T04:19:26;99082.47;;;-3.33;47.04
38880;BME280;25887;30.194;-97.880;2024-01-15T04:21:52;99092.09;;;-3.40;47.06
38880;BME280;25887;30.194;-97.880;2024-01-15T04:24:18;99097.91;;;-3.41;46.94
38880;BME280;25887;30.194;-97.880;2024-01-15T04:26:45;99087.06;;;-3.40;46.95
38880;BME280;25887;30.194;-97.880;2024-01-15T04:29:11;99081.81;;;-3.43;47.24
38880;BME280;25887;30.194;-97.880;2024-01-15T04:31:38;99095.28;;;-3.42;47.12
38880;BME280;25887;30.194;-97.880;2024-01-15T04:34:04;99100.00;;;-3.47;46.91
38880;BME280;25887;30.194;-97.880;2024-01-15T04:36:50;99094.00;;;-3.49;47.32
38880;BME280;25887;30.194;-97.880;2024-01-15T04:39:16;99099.81;;;-3.50;47.30
38880;BME280;25887;30.194;-97.880;2024-01-15T04:41:43;99094.56;;;-3.53;47.42
38880;BME280;25887;30.194;-97.880;2024-01-15T04:44:10;99101.13;;;-3.55;47.62
38880;BME280;25887;30.194;-97.880;2024-01-15T04:46:36;99100.25;;;-3.55;47.45
38880;BME280;25887;30.194;-97.880;2024-01-15T04:49:02;99115.75;;;-3.49;47.56
38880;BME280;25887;30.194;-97.880;2024-01-15T04:51:29;99112.13;;;-3.53;47.35
38880;BME280;25887;30.194;-97.880;2024-01-15T04:53:55;99115.31;;;-3.55;47.46
38880;BME280;25887;30.194;-97.880;2024-01-15T04:56:21;99113.94;;;-3.63;47.73
38880;BME280;25887;30.194;-97.880;2024-01-15T04:58:47;99125.63;;;-3.64;47.20
38880;BME280;25887;30.194;-97.880;2024-01-15T05:01:16;99123.22;;;-3.62;47.77
38880;BME280;25887;30.194;-97.880;2024-01-15T05:03:44;99124.97;;;-3.61;47.32
38880;BME280;25887;30.194;-97.880;2024-01-15T05:06:10;99136.84;;;-3.59;48.11
38880;BME280;25887;30.194;-97.880;2024-01-15T05:08:37;99130.84;;;-3.61;47.69
38880;BME280;25887;30.194;-97.880;2024-01-15T05:11:03;99129.97;;;-3.61;47.96
38880;BME280;25887;30.194;-97.880;2024-01-15T05:13:29;99129.31;;;-3.59;47.62
38880;BME280;25887;30.194;-97.880;2024-01-15T05:15:55;99128.25;;;-3.62;47.58
38880;BME280;25887;30.194;-97.880;2024-01-15T05:18:21;99119.94;;;-3.61;47.86
38880;BME280;25887;30.194;-97.880;2024-01-15T05:20:48;99114.91;;;-3.61;47.76
38880;BME280;25887;30.194;-97.880;2024-01-15T05:23:14;99109.78;;;-3.63;48.31
38880;BME280;25887;30.194;-97.880;2024-01-15T05:25:40;99105.53;;;-3.64;48.08
38880;BME280;25887;30.194;-97.880;2024-01-15T05:28:07;99127.72;;;-3.70;48.48
38880;BME280;25887;30.194;-97.880;2024-01-15T05:30:35;99113.34;;;-3.73;48.81
38880;BME280;25887;30.194;-97.880;2024-01-15T05:33:01;99111.47;;;-3.75;48.31
38880;BME280;25887;30.194;-97.880;2024-01-15T05:35:28;99113.09;;;-3.76;48.16
38880;BME280;25887;30.194;-97.880;2024-01-15T05:37:54;99116.47;;;-3.75;48.57
38880;BME280;25887;30.194;-97.880;2024-01-15T05:40:20;99106.25;;;-3.78;48.45
38880;BME280;25887;30.194;-97.880;2024-01-15T05:42:47;99119.78;;;-3.76;48.51
38880;BME280;25887;30.194;-97.880;2024-01-15T05:45:13;99103.84;;;-3.77;48.42
38880;BME280;25887;30.194;-97.880;2024-01-15T05:47:40;99114.56;;;-3.79;48.44
38880;BME280;25887;30.194;-97.880;2024-01-15T05:50:07;99100.25;;;-3.80;48.55
38880;BME280;25887;30.194;-97.880;2024-01-15T05:52:34;99105.06;;;-3.83;48.22
38880;BME280;25887;30.194;-97.880;2024-01-15T05:55:00;99101.00;;;-3.81;48.50
38880;BME280;25887;30.194;-97.880;2024-01-15T05:57:26;99102.66;;;-3.82;48.70
38880;BME280;25887;30.194;-97.880;2024-01-15T05:59:54;99096.66;;;-3.84;48.52
38880;BME280;25887;30.194;-97.880;2024-01-15T06:02:20;99089.22;;;-3.82;49.01
38880;BME280;25887;30.194;-97.880;2024-01-15T06:04:46;99089.44;;;-3.79;48.67
38880;BME280;25887;30.194;-97.880;2024-01-15T06:07:12;99092.06;;;-3.78;48.77
38880;BME280;25887;30.194;-97.880;2024-01-15T06:09:43;99069.78;;;-3.73;49.16
38880;BME280;25887;30.194;-97.880;2024-01-15T06:12:09;99072.94;;;-3.76;48.76
38880;BME280;25887;30.194;-97.880;2024-01-15T06:14:35;99075.25;;;-3.79;48.79
38880;BME280;25887;30.194;-97.880;2024-01-15T06:17:02;99080.91;;;-3.81;49.41
38880;BME280;25887;30.194;-97.880;2024-01-15T06:19:28;99078.13;;;-3.86;48.61
38880;BME280;25887;30.194;-97.880;2024-01-15T06:21:54;99088.84;;;-3.88;48.91
38880;BME280;25887;30.194;-97.880;2024-01-15T06:24:20;99090.16;;;-3.94;49.45
38880;BME280;25887;30.194;-97.880;2024-01-15T06:26:48;99084.03;;;-3.97;49.05
38880;BME280;25887;30.194;-97.880;2024-01-15T06:29:14;99078.81;;;-4.00;49.18
38880;BME280;25887;30.194;-97.880;2024-01-15T06:31:40;99080.66;;;-3.98;48.89
38880;BME280;25887;30.194;-97.880;2024-01-15T06:34:07;99088.00;;;-4.01;49.03
38880;BME280;25887;30.194;-97.880;2024-01-15T06:36:33;99075.53;;;-3.99;49.53
38880;BME280;25887;30.194;-97.880;2024-01-15T06:38:59;99071.19;;;-4.02;48.96
38880;BME280;25887;30.194;-97.880;2024-01-15T06:41:25;99088.00;;;-4.01;49.32
38880;BME280;25887;30.194;-97.880;2024-01-15T06:43:52;99095.53;;;-4.01;48.99
38880;BME280;25887;30.194;-97.880;2024-01-15T06:46:22;99102.19;;;-4.01;48.96
38880;BME280;25887;30.194;-97.880;2024-01-15T06:48:48;99084.63;;;-4.01;49.03
38880;BME280;25887;30.194;-97.880;2024-01-15T06:51:16;99068.59;;;-4.03;48.96
38880;BME280;25887;30.194;-97.880;2024-01-15T06:53:42;99066.84;;;-4.04;50.04
38880;BME280;25887;30.194;-97.880;2024-01-15T06:56:08;99054.94;;;-4.07;49.40
38880;BME280;25887;30.194;-97.880;2024-01-15T06:58:34;99066.72;;;-4.06;49.74
38880;BME280;25887;30.194;-97.880;2024-01-15T07:01:01;99064.22;;;-4.06;49.21
38880;BME280;25887;30.194;-97.880;2024-01-15T07:03:27;99062.28;;;-4.10;49.27
38880;BME280;25887;30.194;-97.880;2024-01-15T07:05:53;99059.19;;;-4.06;49.48
38880;BME280;25887;30.194;-97.880;2024-01-15T07:08:20;99058.44;;;-4.05;48.90
38880;BME280;25887;30.194;-97.880;2024-01-15T07:10:47;99059.44;;;-4.03;49.80
38880;BME280;25887;30.194;-97.880;2024-01-15T07:13:14;99050.91;;;-4.05;49.37
38880;BME280;25887;30.194;-97.880;2024-01-15T07:15:40;99055.91;;;-4.05;49.20
38880;BME280;25887;30.194;-97.880;2024-01-15T07:18:06;99059.00;;;-4.09;49.26
38880;BME280;25887;30.194;-97.880;2024-01-15T07:20:32;99066.34;;;-4.12;49.88
38880;BME280;25887;30.194;-97.880;2024-01-15T07:22:58;99055.31;;;-4.14;49.03
38880;BME280;25887;30.194;-97.880;2024-01-15T07:25:24;99054.34;;;-4.16;49.82
38880;BME280;25887;30.194;-97.880;2024-01-15T07:28:00;99069.59;;;-4.13;49.95
38880;BME280;25887;30.194;-97.880;2024-01-15T07:30:26;99070.47;;;-4.12;49.34
38880;BME280;25887;30.194;-97.880;2024-01-15T07:32:52;99076.25;;;-4.13;49.74
38880;BME280;25887;30.194;-97.880;2024-01-15T07:35:18;99091.63;;;-4.09;49.04
38880;BME280;25887;30.194;-97.880;2024-01-15T07:37:45;99084.53;;;-4.14;49.42
38880;BME280;25887;30.194;-97.880;2024-01-15T07:40:11;99092.72;;;-4.17;49.87
38880;BME280;25887;30.194;-97.880;2024-01-15T07:42:39;99080.97;;;-4.18;50.05
38880;BME280;25887;30.194;-97.880;2024-01-15T07:45:06;99080.97;;;-4.18;49.41
38880;BME280;25887;30.194;-97.880;2024-01-15T07:47:35;99084.09;;;-4.21;50.37
38880;BME280;25887;30.194;-97.880;2024-01-15T07:50:01;99086.31;;;-4.25;49.88
38880;BME280;25887;30.194;-97.880;2024-01-15T07:52:27;99073.00;;;-4.24;49.78
38880;BME280;25887;30.194;-97.880;2024-01-15T07:54:53;99072.59;;;-4.30;49.99
38880;BME280;25887;30.194;-97.880;2024-01-15T07:57:20;99084.34;;;-4.29;49.91
38880;BME280;25887;30.194;-97.880;2024-01-15T07:59:46;99081.06;;;-4.28;50.03
38880;BME280;25887;30.194;-97.880;2024-01-15T08:02:12;99070.84;;;-4.31;50.08
38880;BME280;25887;30.194;-97.880;2024-01-15T08:04:50;99074.56;;;-4.26;50.21
38880;BME280;25887;30.194;-97.880;2024-01-15T08:07:16;99084.25;;;-4.31;50.10
38880;BME280;25887;30.194;-97.880;2024-01-15T08:09:46;99080.78;;;-4.33;49.90
38880;BME280;25887;30.194;-97.880;2024-01-15T08:12:13;99077.41;;;-4.33;50.00
38880;BME280;25887;30.194;-97.880;2024-01-15T08:14:40;99072.28;;;-4.35;50.98
38880;BME280;25887;30.194;-97.880;2024-01-15T08:17:06;99067.72;;;-4.40;50.88
38880;BME280;25887;30.194;-97.880;2024-01-15T08:19:32;99078.28;;;-4.44;51.06
38880;BME280;25887;30.194;-97.880;2024-01-15T08:21:58;99069.47;;;-4.51;50.49
38880;BME280;25887;30.194;-97.880;2024-01-15T08:24:24;99065.44;;;-4.49;50.99
38880;BME280;25887;30.194;-97.880;2024-01-15T08:26:51;99068.56;;;-4.52;50.58
38880;BME280;25887;30.194;-97.880;2024-01-15T08:29:17;99074.38;;;-4.53;50.28
38880;BME280;25887;30.194;-97.880;2024-01-15T08:31:46;99069.91;;;-4.57;50.86
38880;BME280;25887;30.194;-97.880;2024-01-15T08:34:12;99051.25;;;-4.60;50.90
38880;BME280;25887;30.194;-97.880;2024-01-15T08:36:38;99033.84;;;-4.59;50.99
38880;BME280;25887;30.194;-97.880;2024-01-15T08:39:06;99045.81;;;-4.55;50.76
38880;BME280;25887;30.194;-97.880;2024-01-15T08:41:33;99045.63;;;-4.58;50.33
38880;BME280;25887;30.194;-97.880;2024-01-15T08:44:00;99047.25;;;-4.58;50.46
38880;BME280;25887;30.194;-97.880;2024-01-15T08:46:26;99044.41;;;-4.63;50.76
38880;BME280;25887;30.194;-97.880;2024-01-15T08:48:53;99039.31;;;-4.64;51.13
38880;BME280;25887;30.194;-97.880;2024-01-15T08:51:19;99056.06;;;-4.63;50.78
38880;BME280;25887;30.194;-97.880;2024-01-15T08:53:45;99057.72;;;-4.64;50.67
38880;BME280;25887;30.194;-97.880;2024-01-15T08:56:11;99060.13;;;-4.65;51.04
38880;BME280;25887;30.194;-97.880;2024-01-15T08:58:37;99052.69;;;-4.64;50.59
38880;BME280;25887;30.194;-97.880;2024-01-15T09:01:04;99048.56;;;-4.63;50.83
38880;BME280;25887;30.194;-97.880;2024-01-15T09:03:31;99040.94;;;-4.65;51.11
38880;BME280;25887;30.194;-97.880;2024-01-15T09:05:57;99058.47;;;-4.65;50.75
38880;BME280;25887;30.194;-97.880;2024-01-15T09:08:28;99045.94;;;-4.65;50.90
38880;BME280;25887;30.194;-97.880;2024-01-15T09:10:54;99051.50;;;-4.69;51.48
38880;BME280;25887;30.194;-97.880;2024-01-15T09:13:20;99050.63;;;-4.69;51.21
38880;BME280;25887;30.194;-97.880;2024-01-15T09:15:46;99059.78;;;-4.70;51.39
38880;BME280;25887;30.194;-97.880;2024-01-15T09:18:12;99044.84;;;-4.68;51.29
38880;BME280;25887;30.194;-97.880;2024-01-15T09:20:38;99058.25;;;-4.68;51.72
38880;BME280;25887;30.194;-97.880;2024-01-15T09:23:05;99065.03;;;-4.67;50.89
38880;BME280;25887;30.194;-97.880;2024-01-15T09:25:31;99069.03;;;-4.69;51.32
38880;BME280;25887;30.194;-97.880;2024-01-15T09:27:57;99069.03;;;-4.69;51.46
38880;BME280;25887;30.194;-97.880;2024-01-15T09:30:31;99068.28;;;-4.68;51.50
38880;BME280;25887;30.194;-97.880;2024-01-15T09:32:57;99063.81;;;-4.72;51.93
38880;BME280;25887;30.194;-97.880;2024-01-15T09:35:24;99043.00;;;-4.71;51.55
38880;BME280;25887;30.194;-97.880;2024-01-15T09:37:50;99075.06;;;-4.67;51.75
38880;BME280;25887;30.194;-97.880;2024-01-15T09:40:16;99071.66;;;-4.67;51.81
38880;BME280;25887;30.194;-97.880;2024-01-15T09:42:44;99069.16;;;-4.67;51.91
38880;BME280;25887;30.194;-97.880;2024-01-15T09:45:11;99066.44;;;-4.70;51.70
38880;BME280;25887;30.194;-97.880;2024-01-15T09:47:38;99057.84;;;-4.74;51.72
38880;BME280;25887;30.194;-97.880;2024-01-15T09:50:04;99057.28;;;-4.70;51.78
38880;BME280;25887;30.194;-97.880;2024-01-15T09:52:31;99045.41;;;-4.72;51.71
38880;BME280;25887;30.194;-97.880;2024-01-15T09:54:59;99055.09;;;-4.77;51.56
38880;BME280;25887;30.194;-97.880;2024-01-15T09:57:29;99045.94;;;-4.77;51.74
38880;BME280;25887;30.194;-97.880;2024-01-15T09:59:57;99059.59;;;-4.73;51.46
38880;BME280;25887;30.194;-97.880;2024-01-15T10:02:25;99045.19;;;-4.76;51.26
38880;BME280;25887;30.194;-97.880;2024-01-15T10:04:51;99043.44;;;-4.77;51.83
38880;BME280;25887;30.194;-97.880;2024-01-15T10:07:17;99048.16;;;-4.81;51.79
38880;BME280;25887;30.194;-97.880;2024-01-15T10:09:45;99053.16;;;-4.81;52.29
38880;BME280;25887;30.194;-97.880;2024-01-15T10:12:12;99033.66;;;-4.85;52.02
38880;BME280;25887;30.194;-97.880;2024-01-15T10:14:40;99052.06;;;-4.85;51.89
38880;BME280;25887;30.194;-97.880;2024-01-15T10:17:12;99061.75;;;-4.78;52.27
38880;BME280;25887;30.194;-97.880;2024-01-15T10:19:40;99042.47;;;-4.79;52.02
38880;BME280;25887;30.194;-97.880;2024-01-15T10:22:08;99043.91;;;-4.82;51.92
38880;BME280;25887;30.194;-97.880;2024-01-15T10:24:36;99024.59;;;-4.83;51.64
38880;BME280;25887;30.194;-97.880;2024-01-15T10:27:07;99049.03;;;-4.81;52.11
38880;BME280;25887;30.194;-97.880;2024-01-15T10:29:35;99064.81;;;-4.82;52.29
38880;BME280;25887;30.194;-97.880;2024-01-15T10:32:03;99036.25;;;-4.84;52.04
38880;BME280;25887;30.194;-97.880;2024-01-15T10:34:30;99046.50;;;-4.81;52.12
38880;BME280;25887;30.194;-97.880;2024-01-15T10:36:57;99055.88;;;-4.78;51.34
38880;BME280;25887;30.194;-97.880;2024-01-15T10:39:24;99051.63;;;-4.79;51.77
38880;BME280;25887;30.194;-97.880;2024-01-15T10:41:50;99078.53;;;-4.77;51.62
38880;BME280;25887;30.194;-97.880;2024-01-15T10:44:17;99075.16;;;-4.77;51.48
38880;BME280;25887;30.194;-97.880;2024-01-15T10:46:45;99081.38;;;-4.72;52.05
38880;BME280;25887;30.194;-97.880;2024-01-15T10:49:12;99082.13;;;-4.73;51.63
38880;BME280;25887;30.194;-97.880;2024-01-15T10:51:39;99086.91;;;-4.76;52.08
38880;BME280;25887;30.194;-97.880;2024-01-15T10:54:05;99102.72;;;-4.77;51.77
38880;BME280;25887;30.194;-97.880;2024-01-15T10:56:33;99084.22;;;-4.79;51.92
38880;BME280;25887;30.194;-97.880;2024-01-15T10:59:02;99087.47;;;-4.80;51.69
38880;BME280;25887;30.194;-97.880;2024-01-15T11:01:30;99090.19;;;-4.77;51.70
38880;BME280;25887;30.194;-97.880;2024-01-15T11:03:57;99097.06;;;-4.74;51.80
38880;BME280;25887;30.194;-97.880;2024-01-15T11:06:24;99108.19;;;-4.71;51.83
38880;BME280;25887;30.194;-97.880;2024-01-15T11:08:52;99096.41;;;-4.72;52.34
38880;BME280;25887;30.194;-97.880;2024-01-15T11:11:22;99088.91;;;-4.72;51.72
38880;BME280;25887;30.194;-97.880;2024-01-15T11:13:49;99090.28;;;-4.76;52.33
38880;BME280;25887;30.194;-97.880;2024-01-15T11:16:18;99111.78;;;-4.79;52.30
38880;BME280;25887;30.194;-97.880;2024-01-15T11:19:04;99103.59;;;-4.77;51.48
38880;BME280;25887;30.194;-97.880;2024-01-15T11:21:32;99095.97;;;-4.78;52.01
38880;BME280;25887;30.194;-97.880;2024-01-15T11:24:00;99108.50;;;-4.78;52.59
38880;BME280;25887;30.194;-97.880;2024-01-15T11:26:37;99099.34;;;-4.78;52.09
38880;BME280;25887;30.194;-97.880;2024-01-15T11:29:32;99109.72;;;-4.73;51.82
38880;BME280;25887;30.194;-97.880;2024-01-15T11:32:04;99103.16;;;-4.71;52.02
38880;BME280;25887;30.194;-97.880;2024-01-15T11:37:18;99101.41;;;-4.72;52.27
38880;BME280;25887;30.194;-97.880;2024-01-15T11:39:45;99118.00;;;-4.74;52.13
38880;BME280;25887;30.194;-97.880;2024-01-15T11:42:14;99115.59;;;-4.72;52.54
38880;BME280;25887;30.194;-97.880;2024-01-15T11:44:41;99116.47;;;-4.72;52.26
38880;BME280;25887;30.194;-97.880;2024-01-15T11:47:09;99106.00;;;-4.78;52.39
38880;BME280;25887;30.194;-97.880;2024-01-15T11:52:25;99113.97;;;-4.72;52.57
38880;BME280;25887;30.194;-97.880;2024-01-15T11:55:10;99117.78;;;-4.65;51.50
38880;BME280;25887;30.194;-97.880;2024-01-15T11:57:47;99116.56;;;-4.59;52.77
38880;BME280;25887;30.194;-97.880;2024-01-15T12:00:15;99114.50;;;-4.64;52.10
38880;BME280;25887;30.194;-97.880;2024-01-15T12:02:43;99127.81;;;-4.65;52.50
38880;BME280;25887;30.194;-97.880;2024-01-15T12:05:14;99113.63;;;-4.65;52.45
38880;BME280;25887;30.194;-97.880;2024-01-15T12:07:42;99102.94;;;-4.62;52.38
38880;BME280;25887;30.194;-97.880;2024-01-15T12:10:12;99106.22;;;-4.63;52.14
38880;BME280;25887;30.194;-97.880;2024-01-15T12:15:31;99110.47;;;-4.62;52.61
38880;BME280;25887;30.194;-97.880;2024-01-15T12:17:59;99112.19;;;-4.61;52.38
38880;BME280;25887;30.194;-97.880;2024-01-15T12:20:31;99131.50;;;-4.60;52.26
38880;BME280;25887;30.194;-97.880;2024-01-15T12:23:01;99127.59;;;-4.57;52.44
38880;BME280;25887;30.194;-97.880;2024-01-15T12:25:32;99131.81;;;-4.56;51.92
38880;BME280;25887;30.194;-97.880;2024-01-15T12:28:00;99135.53;;;-4.51;52.43
38880;BME280;25887;30.194;-97.880;2024-01-15T12:30:27;99144.56;;;-4.53;52.33
38880;BME280;25887;30.194;-97.880;2024-01-15T12:32:54;99119.50;;;-4.53;51.77
38880;BME280;25887;30.194;-97.880;2024-01-15T12:35:20;99124.50;;;-4.53;52.73
38880;BME280;25887;30.194;-97.880;2024-01-15T12:37:47;99128.75;;;-4.52;52.24
38880;BME280;25887;30.194;-97.880;2024-01-15T12:40:21;99131.59;;;-4.47;52.17
38880;BME280;25887;30.194;-97.880;2024-01-15T12:42:48;99119.94;;;-4.46;52.00
38880;BME280;25887;30.194;-97.880;2024-01-15T12:45:14;99130.94;;;-4.44;52.01
38880;BME280;25887;30.194;-97.880;2024-01-15T12:47:42;99145.25;;;-4.43;52.74